Columbiana, Ohio
Current Conditions -  °F | °C
As of 12:47 PM on Sunday 21 Dec 2014 (Local Time) from KBVI Reporting Station
Overcast Overcast  
Wind Chill: 30°   Ceiling: 2300
Heat Index: 30°   Visibility: 10mi
Dew Point: 21°   Wind: 3mph
Humidity: 69%   Direction: 150°SSE
Pressure: 30.27"   Gusts: NA
Location:  40.89°N, 80.69°W
Report Text: KBVI 211747Z 15003KT 10SM OVC023 M01/M06 A3027
Loading
Personal Weather Stations






























Interactive Weather Map New forecast layout! Learn more

10-Day Weather Forecast

Advertisements
Track Severe Weather on mobile